createdAt,value
2022-11-05T00:00:36.315Z,21.58
2022-11-05T00:02:57.146Z,18.23
2022-11-05T00:05:18.034Z,18.42
2022-11-05T00:07:47.972Z,17.60
2022-11-05T00:09:51.227Z,22.73
2022-11-05T00:12:11.617Z,23.13
2022-11-05T00:14:33.350Z,21.25
2022-11-05T00:16:44.515Z,18.60
2022-11-05T00:19:06.633Z,27.33
2022-11-05T00:21:29.119Z,28.67
2022-11-05T00:23:49.898Z,26.35
2022-11-05T00:25:56.811Z,20.42
2022-11-05T00:29:01.814Z,19.00
2022-11-05T00:31:11.957Z,22.58
2022-11-05T00:33:15.196Z,16.55
2022-11-05T00:35:19.659Z,18.75
2022-11-05T00:37:21.581Z,16.77
2022-11-05T00:39:23.955Z,18.48
2022-11-05T00:41:25.973Z,23.58
2022-11-05T00:43:48.137Z,17.90
2022-11-05T00:45:50.101Z,20.67
2022-11-05T00:48:10.442Z,24.23
2022-11-05T00:50:13.296Z,20.73
2022-11-05T00:52:33.735Z,16.60
2022-11-05T00:54:35.895Z,18.08
2022-11-05T00:56:37.937Z,23.42
2022-11-05T00:58:40.090Z,23.02
2022-11-05T01:00:45.536Z,29.17
2022-11-05T01:02:47.607Z,29.20
2022-11-05T01:04:49.920Z,31.02
2022-11-05T01:06:55.441Z,27.00
2022-11-05T01:08:57.544Z,26.55
2022-11-05T01:10:59.757Z,28.27
2022-11-05T01:13:01.818Z,29.13
2022-11-05T01:15:04.557Z,19.48
2022-11-05T01:17:06.839Z,15.88
2022-11-05T01:19:10.697Z,21.13
2022-11-05T01:21:14.542Z,19.20
2022-11-05T01:23:17.370Z,13.68
2022-11-05T01:25:19.864Z,14.02
2022-11-05T01:27:22.012Z,15.38
2022-11-05T01:29:24.366Z,15.50
2022-11-05T01:31:26.981Z,15.00
2022-11-05T01:33:29.231Z,16.08
2022-11-05T01:35:31.781Z,16.98
2022-11-05T01:37:35.457Z,15.88
2022-11-05T01:39:37.653Z,14.25
2022-11-05T01:41:39.745Z,14.15
2022-11-05T01:43:50.963Z,19.13
2022-11-05T01:45:57.980Z,21.27
2022-11-05T01:48:05.881Z,18.38
2022-11-05T01:50:20.593Z,14.93
2022-11-05T01:52:24.462Z,15.13
2022-11-05T01:54:31.053Z,13.10
2022-11-05T01:56:44.249Z,11.35
2022-11-05T01:59:00.574Z,11.95
2022-11-05T02:01:02.851Z,13.75
2022-11-05T02:03:05.331Z,11.00
2022-11-05T02:05:09.428Z,14.38
2022-11-05T02:07:12.087Z,15.98
2022-11-05T02:09:29.680Z,14.25
2022-11-05T02:11:32.024Z,12.80
2022-11-05T02:13:35.799Z,13.73
2022-11-05T02:15:56.659Z,15.77
2022-11-05T02:22:35.608Z,12.57
2022-11-05T02:25:11.562Z,12.48
2022-11-05T02:27:26.699Z,14.57
2022-11-05T02:30:31.970Z,14.50
2022-11-05T02:33:00.475Z,11.93
2022-11-05T02:35:21.116Z,14.05
2022-11-05T02:37:51.557Z,12.70
2022-11-05T02:40:05.446Z,10.18
2022-11-05T02:42:16.221Z,11.63
2022-11-05T02:44:57.345Z,13.07
2022-11-05T02:47:18.425Z,12.85
2022-11-05T02:49:38.685Z,14.13
2022-11-05T02:52:05.158Z,13.75
2022-11-05T02:54:24.371Z,15.10
2022-11-05T02:56:37.209Z,13.40
2022-11-05T02:58:39.418Z,12.00
2022-11-05T03:00:47.192Z,13.20
2022-11-05T03:02:49.547Z,12.05
2022-11-05T03:04:51.876Z,13.38
2022-11-05T03:07:05.035Z,12.68
2022-11-05T03:09:51.885Z,16.40
2022-11-05T03:12:21.636Z,14.05
2022-11-05T03:14:50.030Z,16.60
2022-11-05T03:17:10.467Z,14.63
2022-11-05T03:19:41.366Z,15.35
2022-11-05T03:21:51.228Z,17.95
2022-11-05T03:24:19.320Z,16.73
2022-11-05T03:27:00.680Z,13.48
2022-11-05T03:29:09.064Z,14.93
2022-11-05T03:31:14.947Z,13.93
2022-11-05T03:33:22.718Z,15.15
2022-11-05T03:35:28.908Z,11.73
2022-11-05T03:37:35.223Z,14.50
2022-11-05T03:39:44.301Z,13.95
2022-11-05T03:41:51.276Z,14.30
2022-11-05T03:43:58.905Z,11.88
2022-11-05T03:46:12.509Z,11.32
2022-11-05T03:48:16.839Z,10.70
2022-11-05T03:50:21.902Z,10.55
2022-11-05T03:52:28.693Z,10.98
2022-11-05T03:54:30.950Z,13.30
2022-11-05T03:57:05.968Z,12.77
2022-11-05T03:59:11.089Z,8.65
2022-11-05T04:01:13.436Z,10.18
2022-11-05T04:03:16.041Z,10.55
2022-11-05T04:05:18.212Z,13.35
2022-11-05T04:07:38.888Z,15.80
2022-11-05T04:09:59.608Z,17.88
2022-11-05T04:12:20.138Z,11.02
2022-11-05T04:15:25.062Z,11.05
2022-11-05T04:17:27.263Z,16.63
2022-11-05T04:19:49.488Z,15.38
2022-11-05T04:22:10.333Z,13.00
2022-11-05T04:24:13.028Z,10.63
2022-11-05T04:26:15.612Z,12.88
2022-11-05T04:28:17.745Z,9.80
2022-11-05T04:30:20.809Z,8.98
2022-11-05T04:32:22.912Z,13.13
2022-11-05T04:34:25.333Z,9.95
2022-11-05T04:36:27.455Z,15.52
2022-11-05T04:38:29.609Z,12.52
2022-11-05T04:40:31.805Z,11.55
2022-11-05T04:42:34.102Z,9.75
2022-11-05T04:44:36.460Z,13.90
2022-11-05T04:46:38.614Z,13.57
2022-11-05T04:48:40.757Z,11.48
2022-11-05T04:50:42.837Z,9.27
2022-11-05T04:52:44.886Z,10.90
2022-11-05T04:54:46.856Z,12.85
2022-11-05T04:56:51.756Z,9.75
2022-11-05T04:58:53.858Z,13.32
2022-11-05T05:00:56.193Z,11.00
2022-11-05T05:03:00.790Z,10.82
2022-11-05T05:05:03.753Z,14.02
2022-11-05T05:07:06.182Z,14.55
2022-11-05T05:09:08.175Z,9.93
2022-11-05T05:11:13.131Z,10.80
2022-11-05T05:13:17.685Z,15.68
2022-11-05T05:15:19.662Z,12.82
2022-11-05T05:17:22.072Z,14.65
2022-11-05T05:19:25.041Z,13.73
2022-11-05T05:21:39.121Z,16.15
2022-11-05T05:23:41.499Z,18.13
2022-11-05T05:25:43.561Z,16.42
2022-11-05T05:27:46.060Z,15.93
2022-11-05T05:29:48.770Z,17.40
2022-11-05T05:31:50.913Z,15.63
2022-11-05T05:33:54.502Z,15.88
2022-11-05T05:36:00.409Z,12.07
2022-11-05T05:38:02.507Z,12.30
2022-11-05T05:40:04.675Z,15.23
2022-11-05T05:42:06.862Z,11.88
2022-11-05T05:44:09.192Z,11.32
2022-11-05T05:46:14.152Z,13.38
2022-11-05T05:48:16.483Z,13.75
2022-11-05T05:50:18.685Z,12.68
2022-11-05T05:52:26.941Z,12.50
2022-11-05T05:54:32.697Z,14.18
2022-11-05T05:56:37.116Z,14.80
2022-11-05T05:58:39.763Z,35.67
2022-11-05T06:00:42.984Z,62.92
2022-11-05T06:02:45.483Z,57.97
2022-11-05T06:04:47.573Z,46.85
2022-11-05T06:06:49.864Z,28.75
2022-11-05T06:08:51.785Z,28.42
2022-11-05T06:10:54.014Z,18.83
2022-11-05T06:12:56.555Z,17.27
2022-11-05T06:14:58.752Z,15.65
2022-11-05T06:17:01.112Z,15.95
2022-11-05T06:19:03.332Z,12.23
2022-11-05T06:21:10.778Z,15.13
2022-11-05T06:23:13.234Z,17.23
2022-11-05T06:25:17.881Z,15.00
2022-11-05T06:27:20.014Z,13.05
2022-11-05T06:29:22.027Z,21.65
2022-11-05T06:31:24.647Z,23.33
2022-11-05T06:33:30.569Z,19.30
2022-11-05T06:35:32.623Z,20.92
2022-11-05T06:37:37.758Z,22.45
2022-11-05T06:39:42.363Z,19.50
2022-11-05T06:42:12.002Z,22.77
2022-11-05T06:44:07.213Z,17.35
2022-11-05T06:46:10.931Z,18.60
2022-11-05T06:48:12.922Z,20.92
2022-11-05T06:50:15.037Z,16.95
2022-11-05T06:52:17.559Z,21.13
2022-11-05T06:54:19.832Z,23.42
2022-11-05T06:56:22.226Z,25.13
2022-11-05T06:58:24.886Z,19.92
2022-11-05T07:00:27.028Z,16.50
2022-11-05T07:02:29.093Z,17.25
2022-11-05T07:04:31.068Z,13.23
2022-11-05T07:06:37.022Z,16.50
2022-11-05T07:08:39.718Z,13.25
2022-11-05T07:10:41.866Z,13.98
2022-11-05T07:12:44.285Z,18.38
2022-11-05T07:14:46.830Z,18.13
2022-11-05T07:16:48.925Z,17.38
2022-11-05T07:18:52.950Z,16.15
2022-11-05T07:20:55.259Z,17.92
2022-11-05T07:23:12.181Z,22.75
2022-11-05T07:25:14.334Z,17.30
2022-11-05T07:27:17.358Z,14.45
2022-11-05T07:29:19.384Z,16.60
2022-11-05T07:31:21.713Z,12.70
2022-11-05T07:33:23.796Z,14.45
2022-11-05T07:35:27.502Z,14.55
2022-11-05T07:37:29.748Z,13.38
2022-11-05T07:39:33.802Z,14.77
2022-11-05T07:41:36.200Z,17.40
2022-11-05T07:43:38.340Z,16.88
2022-11-05T07:45:40.527Z,16.33
2022-11-05T07:47:57.465Z,18.40
2022-11-05T07:49:59.657Z,23.00
2022-11-05T07:52:01.788Z,25.30
2022-11-05T07:55:19.201Z,25.05
2022-11-05T07:57:21.441Z,32.08
2022-11-05T07:59:23.379Z,22.75
2022-11-05T08:01:25.792Z,22.38
2022-11-05T08:03:28.005Z,22.77
2022-11-05T08:05:30.850Z,21.42
2022-11-05T08:07:33.023Z,24.85
2022-11-05T08:09:35.121Z,24.33
2022-11-05T08:11:37.426Z,22.25
2022-11-05T08:13:39.281Z,17.55
2022-11-05T08:15:43.063Z,18.00
2022-11-05T08:17:45.535Z,17.77
2022-11-05T08:19:47.829Z,17.52
2022-11-05T08:21:49.642Z,15.52
2022-11-05T08:23:51.761Z,16.25
2022-11-05T08:25:55.513Z,15.98
2022-11-05T08:28:00.305Z,15.10
2022-11-05T08:30:03.188Z,13.15
2022-11-05T08:32:05.342Z,12.68
2022-11-05T08:34:32.168Z,14.77
2022-11-05T08:36:35.321Z,15.10
2022-11-05T08:38:37.705Z,12.30
2022-11-05T08:40:40.617Z,15.52
2022-11-05T08:42:42.852Z,14.82
2022-11-05T08:44:44.923Z,18.15
2022-11-05T08:46:47.317Z,15.85
2022-11-05T08:48:50.137Z,16.27
2022-11-05T08:50:52.470Z,15.60
2022-11-05T08:52:55.199Z,16.25
2022-11-05T08:54:57.231Z,13.60
2022-11-05T08:56:59.444Z,16.17
2022-11-05T08:59:01.660Z,19.88
2022-11-05T09:01:05.668Z,19.77
2022-11-05T09:03:09.534Z,17.85
2022-11-05T09:05:12.058Z,18.10
2022-11-05T09:07:14.124Z,19.17
2022-11-05T09:09:16.288Z,19.00
2022-11-05T09:11:18.387Z,17.42
2022-11-05T09:13:20.785Z,15.57
2022-11-05T09:15:23.669Z,19.83
2022-11-05T09:17:25.791Z,17.67
2022-11-05T09:19:28.292Z,28.50
2022-11-05T09:21:31.492Z,34.88
2022-11-05T09:23:33.581Z,38.05
2022-11-05T09:25:35.996Z,29.35
2022-11-05T09:27:38.416Z,22.48
2022-11-05T09:29:42.009Z,22.85
2022-11-05T09:31:44.333Z,18.73
2022-11-05T09:33:46.513Z,20.35
2022-11-05T09:35:48.883Z,13.85
2022-11-05T09:37:50.956Z,22.25
2022-11-05T09:39:53.287Z,27.83
2022-11-05T09:42:02.333Z,41.17
2022-11-05T09:44:11.913Z,47.50
2022-11-05T09:46:22.650Z,39.88
2022-11-05T09:48:29.022Z,37.90
2022-11-05T09:50:35.307Z,57.78
2022-11-05T09:52:38.463Z,53.58
2022-11-05T09:54:41.628Z,56.75
2022-11-05T09:56:44.721Z,107.40
2022-11-05T09:59:02.579Z,118.68
2022-11-05T10:01:12.024Z,74.80
2022-11-05T10:03:20.283Z,45.88
2022-11-05T10:05:27.249Z,39.50
2022-11-05T10:07:34.351Z,25.08
2022-11-05T10:09:51.672Z,18.17
2022-11-05T10:12:08.487Z,16.65
2022-11-05T10:14:38.967Z,15.98
2022-11-05T10:16:46.203Z,17.35
2022-11-05T10:18:54.443Z,13.25
2022-11-05T10:20:57.210Z,12.50
2022-11-05T10:23:03.017Z,15.27
2022-11-05T10:25:18.074Z,13.40
2022-11-05T10:27:32.253Z,13.05
2022-11-05T10:29:36.263Z,12.88
2022-11-05T10:32:05.877Z,11.77
2022-11-05T10:34:13.886Z,9.90
2022-11-05T10:36:41.956Z,14.13
2022-11-05T10:38:43.914Z,13.27
2022-11-05T10:41:10.492Z,15.25
2022-11-05T10:43:18.763Z,13.32
2022-11-05T10:45:36.326Z,12.27
2022-11-05T10:47:46.376Z,14.52
2022-11-05T10:50:01.857Z,15.00
2022-11-05T10:52:22.837Z,13.30
2022-11-05T10:54:33.764Z,16.05
2022-11-05T10:56:39.288Z,13.45
2022-11-05T10:58:58.602Z,14.73
2022-11-05T11:01:10.755Z,14.25
2022-11-05T11:03:53.342Z,13.85
2022-11-05T11:06:01.573Z,14.13
2022-11-05T11:08:24.697Z,14.73
2022-11-05T11:10:28.235Z,12.38
2022-11-05T11:12:45.641Z,13.20
2022-11-05T11:15:13.300Z,12.30
2022-11-05T11:17:18.076Z,14.80
2022-11-05T11:19:36.834Z,12.02
2022-11-05T11:21:41.792Z,13.95
2022-11-05T11:27:35.213Z,13.52
2022-11-05T11:29:42.891Z,12.38
2022-11-05T11:31:55.899Z,14.27
2022-11-05T11:34:21.502Z,9.23
2022-11-05T11:36:33.475Z,13.25
2022-11-05T11:38:37.261Z,11.98
2022-11-05T11:40:39.741Z,12.63
2022-11-05T11:42:46.845Z,10.65
2022-11-05T11:44:50.782Z,15.68
2022-11-05T11:46:55.993Z,17.83
2022-11-05T11:48:59.207Z,22.75
2022-11-05T11:51:21.081Z,17.60
2022-11-05T11:53:39.348Z,22.27
2022-11-05T11:55:41.537Z,14.73
2022-11-05T11:57:44.924Z,24.10
2022-11-05T12:00:07.690Z,25.85
2022-11-05T12:02:24.758Z,26.30
2022-11-05T12:04:46.480Z,25.05
2022-11-05T12:07:21.677Z,29.45
2022-11-05T12:09:30.114Z,18.58
2022-11-05T12:12:35.589Z,13.70
2022-11-05T12:14:59.111Z,16.88
2022-11-05T12:17:22.071Z,18.80
2022-11-05T12:20:00.367Z,11.73
2022-11-05T12:22:29.479Z,14.60
2022-11-05T12:25:01.368Z,12.23
2022-11-05T12:27:21.811Z,10.90
2022-11-05T12:29:59.989Z,10.02
2022-11-05T12:32:43.092Z,13.20
2022-11-05T12:35:06.844Z,17.27
2022-11-05T12:37:37.599Z,16.27
2022-11-05T12:39:59.940Z,15.05
2022-11-05T12:42:18.256Z,17.80
2022-11-05T12:44:43.946Z,16.05
2022-11-05T12:47:04.927Z,16.50
2022-11-05T12:49:19.932Z,28.75
2022-11-05T12:52:16.317Z,35.83
2022-11-05T12:54:40.215Z,34.72
2022-11-05T12:56:47.469Z,33.95
2022-11-05T12:59:00.911Z,21.50
2022-11-05T13:01:11.591Z,44.65
2022-11-05T13:03:20.000Z,45.45
2022-11-05T13:05:36.753Z,42.42
2022-11-05T13:07:46.767Z,34.30
2022-11-05T13:09:55.712Z,34.00
2022-11-05T13:12:03.468Z,30.75
2022-11-05T13:14:21.812Z,41.03
2022-11-05T13:16:30.742Z,34.03
2022-11-05T13:18:44.227Z,27.88
2022-11-05T13:20:51.216Z,30.88
2022-11-05T13:23:00.198Z,28.02
2022-11-05T13:25:10.987Z,22.83
2022-11-05T13:27:31.008Z,16.42
2022-11-05T13:29:52.770Z,17.35
2022-11-05T13:32:01.537Z,17.55
2022-11-05T13:34:10.218Z,20.33
2022-11-05T13:36:49.760Z,21.00
2022-11-05T13:39:10.013Z,23.63
2022-11-05T13:41:41.201Z,18.55
2022-11-05T13:44:09.621Z,17.70
2022-11-05T13:46:11.613Z,22.35
2022-11-05T13:48:16.474Z,19.65
2022-11-05T13:50:56.572Z,21.30
2022-11-05T13:53:23.494Z,27.55
2022-11-05T13:56:11.511Z,33.33
2022-11-05T13:58:26.530Z,26.60
2022-11-05T14:00:33.535Z,24.17
2022-11-05T14:02:51.596Z,21.23
2022-11-05T14:05:00.973Z,24.15
2022-11-05T14:07:37.914Z,21.35
2022-11-05T14:09:41.696Z,18.30
2022-11-05T14:11:50.375Z,17.83
2022-11-05T14:13:58.052Z,19.83
2022-11-05T14:16:20.058Z,17.98
2022-11-05T14:18:27.554Z,14.48
2022-11-05T14:20:32.415Z,16.80
2022-11-05T14:22:34.346Z,17.63
2022-11-05T14:24:44.400Z,16.10
2022-11-05T14:27:06.286Z,18.00
2022-11-05T14:29:10.959Z,16.85
2022-11-05T14:31:18.697Z,24.45
2022-11-05T14:33:27.131Z,19.48
2022-11-05T14:35:38.278Z,18.50
2022-11-05T14:37:42.579Z,20.95
2022-11-05T14:39:48.082Z,17.58
2022-11-05T14:42:03.357Z,17.48
2022-11-05T14:44:08.232Z,15.90
2022-11-05T14:46:11.694Z,17.58
2022-11-05T14:48:31.218Z,15.55
2022-11-05T14:50:40.824Z,17.35
2022-11-05T14:53:26.294Z,18.42
2022-11-05T14:55:40.519Z,14.73
2022-11-05T14:58:03.552Z,17.75
2022-11-05T15:00:26.376Z,19.42
2022-11-05T15:02:35.622Z,22.40
2022-11-05T15:04:49.444Z,19.25
2022-11-05T15:07:03.394Z,20.63
2022-11-05T15:09:13.603Z,19.08
2022-11-05T15:11:27.807Z,23.63
2022-11-05T15:13:36.771Z,17.02
2022-11-05T15:15:44.843Z,17.00
2022-11-05T15:18:09.703Z,23.52
2022-11-05T15:20:22.448Z,23.33
2022-11-05T15:22:36.315Z,28.13
2022-11-05T15:24:42.137Z,24.02
2022-11-05T15:27:05.028Z,20.65
2022-11-05T15:29:17.453Z,23.00
2022-11-05T15:31:34.288Z,23.67
2022-11-05T15:33:36.410Z,22.52
2022-11-05T15:35:41.596Z,23.58
2022-11-05T15:37:53.434Z,25.88
2022-11-05T15:39:58.032Z,24.20
2022-11-05T15:42:04.792Z,25.40
2022-11-05T15:44:06.760Z,23.92
2022-11-05T15:46:19.909Z,26.60
2022-11-05T15:48:22.005Z,24.73
2022-11-05T15:50:23.917Z,22.65
2022-11-05T15:52:34.991Z,22.92
2022-11-05T15:54:37.777Z,20.85
2022-11-05T15:56:57.554Z,21.27
2022-11-05T15:59:06.032Z,23.27
2022-11-05T16:04:47.785Z,21.23
2022-11-05T16:06:52.810Z,24.38
2022-11-05T16:08:55.074Z,18.90
2022-11-05T16:11:01.241Z,18.58
2022-11-05T16:13:29.199Z,22.52
2022-11-05T16:15:33.063Z,22.85
2022-11-05T16:17:38.121Z,31.75
2022-11-05T16:19:42.372Z,34.45
2022-11-05T16:21:55.067Z,34.40
2022-11-05T16:23:59.890Z,43.75
2022-11-05T16:26:02.091Z,42.50
2022-11-05T16:28:20.304Z,41.80
2022-11-05T16:30:23.028Z,38.08
2022-11-05T16:32:33.793Z,38.15
2022-11-05T16:35:00.285Z,34.35
2022-11-05T16:37:03.544Z,36.72
2022-11-05T16:39:05.570Z,38.45
2022-11-05T16:41:22.962Z,30.90
2022-11-05T16:43:26.772Z,28.92
2022-11-05T16:45:28.951Z,27.45
2022-11-05T16:47:31.755Z,25.35
2022-11-05T16:49:33.926Z,26.42
2022-11-05T16:51:36.147Z,27.73
2022-11-05T16:53:38.442Z,29.55
2022-11-05T16:55:42.981Z,29.08
2022-11-05T16:57:49.639Z,28.38
2022-11-05T17:04:17.047Z,32.85
2022-11-05T17:06:20.968Z,31.85
2022-11-05T17:08:23.092Z,32.15
2022-11-05T17:10:26.860Z,28.70
2022-11-05T17:12:28.888Z,31.15
2022-11-05T17:14:31.111Z,32.53
2022-11-05T17:16:33.177Z,33.05
2022-11-05T17:18:35.335Z,32.25
2022-11-05T17:20:40.999Z,35.75
2022-11-05T17:22:43.171Z,37.60
2022-11-05T17:24:45.106Z,39.80
2022-11-05T17:26:49.603Z,33.70
2022-11-05T17:28:51.950Z,35.50
2022-11-05T17:30:54.014Z,34.75
2022-11-05T17:33:22.937Z,40.33
2022-11-05T17:35:25.484Z,47.90
2022-11-05T17:37:27.472Z,57.33
2022-11-05T17:39:31.898Z,59.15
2022-11-05T17:41:34.179Z,56.58
2022-11-05T17:43:36.227Z,49.88
2022-11-05T17:45:49.796Z,54.22
2022-11-05T17:47:52.145Z,51.47
2022-11-05T17:49:54.043Z,53.90
2022-11-05T17:51:56.257Z,50.90
2022-11-05T17:53:58.329Z,49.03
2022-11-05T17:56:00.270Z,46.80
2022-11-05T17:58:02.581Z,44.75
2022-11-05T18:00:04.939Z,45.42
2022-11-05T18:02:13.442Z,45.17
2022-11-05T18:04:15.519Z,45.80
2022-11-05T18:06:17.498Z,42.38
2022-11-05T18:08:19.539Z,43.63
2022-11-05T18:10:22.645Z,44.25
2022-11-05T18:12:27.560Z,48.08
2022-11-05T18:14:29.875Z,40.97
2022-11-05T18:16:33.428Z,47.90
2022-11-05T18:18:35.568Z,65.13
2022-11-05T18:20:38.458Z,79.50
2022-11-05T18:22:40.563Z,69.53
2022-11-05T18:24:42.730Z,63.20
2022-11-05T18:26:44.735Z,57.67
2022-11-05T18:28:46.962Z,84.00
2022-11-05T18:30:49.193Z,65.35
2022-11-05T18:32:51.586Z,67.85
2022-11-05T18:34:53.581Z,88.63
2022-11-05T18:36:56.647Z,90.57
2022-11-05T18:39:01.639Z,92.65
2022-11-05T18:41:07.508Z,75.55
2022-11-05T18:43:09.900Z,72.18
2022-11-05T18:45:12.826Z,72.65
2022-11-05T18:47:17.719Z,73.85
2022-11-05T18:49:20.050Z,65.82
2022-11-05T18:51:22.547Z,71.60
2022-11-05T18:53:24.688Z,113.38
2022-11-05T18:55:26.637Z,101.85
2022-11-05T18:57:29.177Z,83.32
2022-11-05T18:59:39.786Z,71.25
2022-11-05T19:01:42.488Z,68.03
2022-11-05T19:03:45.143Z,71.53
2022-11-05T19:05:47.306Z,66.15
2022-11-05T19:07:49.696Z,67.35
2022-11-05T19:09:52.168Z,68.03
2022-11-05T19:11:57.077Z,64.80
2022-11-05T19:13:59.341Z,64.28
2022-11-05T19:16:01.587Z,57.75
2022-11-05T19:18:06.462Z,57.42
2022-11-05T19:20:09.402Z,49.72
2022-11-05T19:22:11.617Z,47.47
2022-11-05T19:24:17.208Z,40.35
2022-11-05T19:26:28.595Z,42.08
2022-11-05T19:28:31.023Z,47.70
2022-11-05T19:30:35.462Z,49.42
2022-11-05T19:32:37.294Z,58.75
2022-11-05T19:34:39.574Z,67.20
2022-11-05T19:36:42.704Z,62.22
2022-11-05T19:38:44.815Z,66.93
2022-11-05T19:40:46.691Z,64.95
2022-11-05T19:42:48.439Z,70.13
2022-11-05T19:44:50.441Z,75.20
2022-11-05T19:46:52.840Z,62.92
2022-11-05T19:48:55.345Z,70.43
2022-11-05T19:50:57.689Z,73.53
2022-11-05T19:52:59.860Z,71.30
2022-11-05T19:55:01.846Z,68.97
2022-11-05T19:57:03.951Z,64.13
2022-11-05T19:59:08.876Z,73.40
2022-11-05T20:01:12.431Z,72.55
2022-11-05T20:03:14.728Z,90.65
2022-11-05T20:05:18.408Z,84.22
2022-11-05T20:07:20.523Z,80.20
2022-11-05T20:09:23.441Z,74.85
2022-11-05T20:11:25.418Z,72.55
2022-11-05T20:13:29.073Z,75.90
2022-11-05T20:15:30.946Z,77.90
2022-11-05T20:17:33.357Z,78.50
2022-11-05T20:19:35.684Z,80.03
2022-11-05T20:21:37.857Z,69.28
2022-11-05T20:23:40.042Z,63.70
2022-11-05T20:25:42.608Z,59.65
2022-11-05T20:27:44.610Z,55.45
2022-11-05T20:29:46.882Z,60.15
2022-11-05T20:31:52.938Z,49.15
2022-11-05T20:33:55.017Z,48.67
2022-11-05T20:36:01.786Z,49.47
2022-11-05T20:38:03.747Z,56.40
2022-11-05T20:40:06.533Z,58.40
2022-11-05T20:42:08.365Z,55.10
2022-11-05T20:44:10.465Z,53.55
2022-11-05T20:46:14.974Z,50.88
2022-11-05T20:48:16.706Z,54.65
2022-11-05T20:50:18.603Z,48.75
2022-11-05T20:52:20.624Z,52.20
2022-11-05T20:54:23.103Z,50.63
2022-11-05T20:56:28.320Z,42.15
2022-11-05T20:58:32.084Z,49.08
2022-11-05T21:00:34.233Z,48.58
2022-11-05T21:02:38.510Z,47.30
2022-11-05T21:04:40.854Z,43.25
2022-11-05T21:06:43.191Z,49.25
2022-11-05T21:08:48.816Z,45.70
2022-11-05T21:10:51.543Z,40.80
2022-11-05T21:12:53.811Z,39.28
2022-11-05T21:14:56.149Z,38.67
2022-11-05T21:16:58.126Z,39.28
2022-11-05T21:19:00.070Z,39.63
2022-11-05T21:21:09.089Z,38.88
2022-11-05T21:23:11.773Z,41.42
2022-11-05T21:25:14.295Z,42.80
2022-11-05T21:27:16.654Z,39.33
2022-11-05T21:29:18.877Z,42.28
2022-11-05T21:31:20.850Z,38.50
2022-11-05T21:33:23.252Z,37.38
2022-11-05T21:35:25.402Z,43.45
2022-11-05T21:37:27.421Z,40.88
2022-11-05T21:39:30.040Z,38.72
2022-11-05T21:41:32.099Z,38.42
2022-11-05T21:43:34.184Z,39.20
2022-11-05T21:45:42.087Z,39.88
2022-11-05T21:47:44.244Z,35.70
2022-11-05T21:49:46.285Z,38.88
2022-11-05T21:52:06.776Z,39.92
2022-11-05T21:54:29.441Z,40.33
2022-11-05T21:56:50.455Z,33.65
2022-11-05T21:59:11.586Z,37.47
2022-11-05T22:01:14.243Z,35.30
2022-11-05T22:03:16.224Z,38.47
2022-11-05T22:05:18.539Z,37.85
2022-11-05T22:07:29.074Z,37.55
2022-11-05T22:09:56.283Z,38.97
2022-11-05T22:11:58.452Z,37.20
2022-11-05T22:14:00.518Z,36.72
2022-11-05T22:16:02.619Z,37.20
2022-11-05T22:18:04.858Z,41.25
2022-11-05T22:20:08.517Z,38.63
2022-11-05T22:22:10.974Z,36.70
2022-11-05T22:24:13.711Z,41.10
2022-11-05T22:26:16.709Z,33.70
2022-11-05T22:28:18.654Z,35.78
2022-11-05T22:30:20.604Z,38.75
2022-11-05T22:32:22.871Z,34.45
2022-11-05T22:34:25.981Z,34.92
2022-11-05T22:36:28.185Z,34.45
2022-11-05T22:38:31.077Z,34.92
2022-11-05T22:40:33.254Z,32.20
2022-11-05T22:42:35.376Z,35.05
2022-11-05T22:44:37.637Z,31.10
2022-11-05T22:46:40.800Z,30.85
2022-11-05T22:48:43.949Z,31.80
2022-11-05T22:50:45.944Z,33.08
2022-11-05T22:52:47.865Z,32.58
2022-11-05T22:54:49.975Z,33.60
2022-11-05T22:56:53.555Z,33.88
2022-11-05T22:58:56.260Z,34.10
2022-11-05T23:00:58.683Z,34.35
2022-11-05T23:03:01.503Z,30.25
2022-11-05T23:05:04.001Z,30.83
2022-11-05T23:07:27.865Z,29.48
2022-11-05T23:09:55.135Z,30.58
2022-11-05T23:11:57.609Z,38.13
2022-11-05T23:13:59.615Z,35.53
2022-11-05T23:16:20.207Z,28.75
2022-11-05T23:18:40.728Z,33.78
2022-11-05T23:21:01.490Z,31.90
2022-11-05T23:23:22.109Z,31.52
2022-11-05T23:25:24.859Z,34.28
2022-11-05T23:27:34.385Z,30.98
2022-11-05T23:29:36.623Z,35.10
2022-11-05T23:31:59.076Z,33.67
2022-11-05T23:34:01.299Z,35.72
2022-11-05T23:36:22.286Z,30.85
2022-11-05T23:38:34.190Z,28.58
2022-11-05T23:40:56.247Z,30.15
2022-11-05T23:43:16.796Z,28.95
2022-11-05T23:45:37.601Z,33.50
2022-11-05T23:47:58.649Z,36.15
2022-11-05T23:50:00.583Z,54.78
2022-11-05T23:52:02.584Z,53.67
2022-11-05T23:54:05.049Z,48.15
2022-11-05T23:56:11.079Z,37.75
2022-11-05T23:58:13.294Z,40.60
